sensor_id;sensor_type;location;lat;lon;timestamp;temperature;humidity
11812;DHT22;5963;50.184;9.162;2023-04-15T00:01:28;6.00;99.90
11812;DHT22;5963;50.184;9.162;2023-04-15T00:04:01;5.90;99.90
11812;DHT22;5963;50.184;9.162;2023-04-15T00:06:31;5.90;99.90
11812;DHT22;5963;50.184;9.162;2023-04-15T00:08:58;5.90;99.90
11812;DHT22;5963;50.184;9.162;2023-04-15T00:11:29;5.90;99.90
11812;DHT22;5963;50.184;9.162;2023-04-15T00:13:59;5.90;99.90
11812;DHT22;5963;50.184;9.162;2023-04-15T00:16:31;5.80;99.90
11812;DHT22;5963;50.184;9.162;2023-04-15T00:19:00;5.80;99.90
11812;DHT22;5963;50.184;9.162;2023-04-15T00:21:30;5.80;99.90
11812;DHT22;5963;50.184;9.162;2023-04-15T00:24:00;5.80;99.90
11812;DHT22;5963;50.184;9.162;2023-04-15T00:26:29;5.70;99.90
11812;DHT22;5963;50.184;9.162;2023-04-15T00:28:59;5.70;99.90
11812;DHT22;5963;50.184;9.162;2023-04-15T00:31:32;5.60;99.90
11812;DHT22;5963;50.184;9.162;2023-04-15T00:34:02;5.50;99.90
11812;DHT22;5963;50.184;9.162;2023-04-15T00:36:32;5.40;99.90
11812;DHT22;5963;50.184;9.162;2023-04-15T00:39:03;5.40;99.90
11812;DHT22;5963;50.184;9.162;2023-04-15T00:41:33;5.50;99.90
11812;DHT22;5963;50.184;9.162;2023-04-15T00:44:07;5.50;99.90
11812;DHT22;5963;50.184;9.162;2023-04-15T00:46:39;5.50;99.90
11812;DHT22;5963;50.184;9.162;2023-04-15T00:49:09;5.50;99.90
11812;DHT22;5963;50.184;9.162;2023-04-15T00:51:40;5.50;99.90
11812;DHT22;5963;50.184;9.162;2023-04-15T00:54:10;5.50;99.90
11812;DHT22;5963;50.184;9.162;2023-04-15T00:56:40;5.50;99.90
11812;DHT22;5963;50.184;9.162;2023-04-15T00:59:11;5.60;99.90
11812;DHT22;5963;50.184;9.162;2023-04-15T01:01:42;5.50;99.90
11812;DHT22;5963;50.184;9.162;2023-04-15T01:04:12;5.30;99.90
11812;DHT22;5963;50.184;9.162;2023-04-15T01:06:43;5.30;99.90
11812;DHT22;5963;50.184;9.162;2023-04-15T01:09:13;5.30;99.90
11812;DHT22;5963;50.184;9.162;2023-04-15T01:11:43;5.30;99.90
11812;DHT22;5963;50.184;9.162;2023-04-15T01:14:13;5.20;99.90
11812;DHT22;5963;50.184;9.162;2023-04-15T01:16:44;5.30;99.90
11812;DHT22;5963;50.184;9.162;2023-04-15T01:19:15;5.10;99.90
11812;DHT22;5963;50.184;9.162;2023-04-15T01:21:44;5.10;99.90
11812;DHT22;5963;50.184;9.162;2023-04-15T01:24:16;5.10;99.90
11812;DHT22;5963;50.184;9.162;2023-04-15T01:26:48;5.00;99.90
11812;DHT22;5963;50.184;9.162;2023-04-15T01:29:18;5.00;99.90
11812;DHT22;5963;50.184;9.162;2023-04-15T01:31:52;5.00;99.90
11812;DHT22;5963;50.184;9.162;2023-04-15T01:34:22;5.00;99.90
11812;DHT22;5963;50.184;9.162;2023-04-15T01:36:52;4.80;99.90
11812;DHT22;5963;50.184;9.162;2023-04-15T01:39:22;4.90;99.90
11812;DHT22;5963;50.184;9.162;2023-04-15T01:41:53;4.90;99.90
11812;DHT22;5963;50.184;9.162;2023-04-15T01:44:23;4.70;99.90
11812;DHT22;5963;50.184;9.162;2023-04-15T01:46:53;4.70;99.90
11812;DHT22;5963;50.184;9.162;2023-04-15T01:49:22;4.70;99.90
11812;DHT22;5963;50.184;9.162;2023-04-15T01:51:56;4.80;99.90
11812;DHT22;5963;50.184;9.162;2023-04-15T01:54:25;4.70;99.90
11812;DHT22;5963;50.184;9.162;2023-04-15T01:56:57;4.70;99.90
11812;DHT22;5963;50.184;9.162;2023-04-15T01:59:27;4.80;99.90
11812;DHT22;5963;50.184;9.162;2023-04-15T02:01:55;4.90;99.90
11812;DHT22;5963;50.184;9.162;2023-04-15T02:04:25;5.00;99.90
11812;DHT22;5963;50.184;9.162;2023-04-15T02:06:55;5.00;99.90
11812;DHT22;5963;50.184;9.162;2023-04-15T02:09:25;5.10;99.90
11812;DHT22;5963;50.184;9.162;2023-04-15T02:11:55;5.10;99.90
11812;DHT22;5963;50.184;9.162;2023-04-15T02:14:26;5.00;99.90
11812;DHT22;5963;50.184;9.162;2023-04-15T02:16:55;5.00;99.90
11812;DHT22;5963;50.184;9.162;2023-04-15T02:19:25;5.00;99.90
11812;DHT22;5963;50.184;9.162;2023-04-15T02:21:55;4.90;99.90
11812;DHT22;5963;50.184;9.162;2023-04-15T02:24:25;4.80;99.90
11812;DHT22;5963;50.184;9.162;2023-04-15T02:26:54;4.90;99.90
11812;DHT22;5963;50.184;9.162;2023-04-15T02:29:26;4.90;99.90
11812;DHT22;5963;50.184;9.162;2023-04-15T02:31:56;4.80;99.90
11812;DHT22;5963;50.184;9.162;2023-04-15T02:34:25;4.90;99.90
11812;DHT22;5963;50.184;9.162;2023-04-15T02:36:55;4.90;99.90
11812;DHT22;5963;50.184;9.162;2023-04-15T02:39:25;5.00;99.90
11812;DHT22;5963;50.184;9.162;2023-04-15T02:41:55;4.90;99.90
11812;DHT22;5963;50.184;9.162;2023-04-15T02:44:28;5.00;99.90
11812;DHT22;5963;50.184;9.162;2023-04-15T02:46:58;5.10;99.90
11812;DHT22;5963;50.184;9.162;2023-04-15T02:49:28;5.00;99.90
11812;DHT22;5963;50.184;9.162;2023-04-15T02:51:58;4.90;99.90
11812;DHT22;5963;50.184;9.162;2023-04-15T02:54:28;4.80;99.90
11812;DHT22;5963;50.184;9.162;2023-04-15T02:56:57;4.80;99.90
11812;DHT22;5963;50.184;9.162;2023-04-15T02:59:29;4.90;99.90
11812;DHT22;5963;50.184;9.162;2023-04-15T03:01:58;4.90;99.90
11812;DHT22;5963;50.184;9.162;2023-04-15T03:04:28;4.80;99.90
11812;DHT22;5963;50.184;9.162;2023-04-15T03:06:59;4.80;99.90
11812;DHT22;5963;50.184;9.162;2023-04-15T03:09:29;4.80;99.90
11812;DHT22;5963;50.184;9.162;2023-04-15T03:11:59;4.80;99.90
11812;DHT22;5963;50.184;9.162;2023-04-15T03:14:30;4.80;99.90
11812;DHT22;5963;50.184;9.162;2023-04-15T03:17:00;4.90;99.90
11812;DHT22;5963;50.184;9.162;2023-04-15T03:19:30;4.90;99.90
11812;DHT22;5963;50.184;9.162;2023-04-15T03:22:00;4.90;99.90
11812;DHT22;5963;50.184;9.162;2023-04-15T03:24:30;5.00;99.90
11812;DHT22;5963;50.184;9.162;2023-04-15T03:26:59;5.10;99.90
11812;DHT22;5963;50.184;9.162;2023-04-15T03:29:31;4.90;99.90
11812;DHT22;5963;50.184;9.162;2023-04-15T03:32:01;4.90;99.90
11812;DHT22;5963;50.184;9.162;2023-04-15T03:34:30;4.80;99.90
11812;DHT22;5963;50.184;9.162;2023-04-15T03:37:00;4.80;99.90
11812;DHT22;5963;50.184;9.162;2023-04-15T03:39:30;4.80;99.90
11812;DHT22;5963;50.184;9.162;2023-04-15T03:42:00;4.90;99.90
11812;DHT22;5963;50.184;9.162;2023-04-15T03:44:32;4.80;99.90
11812;DHT22;5963;50.184;9.162;2023-04-15T03:47:01;4.80;99.90
11812;DHT22;5963;50.184;9.162;2023-04-15T03:49:31;4.80;99.90
11812;DHT22;5963;50.184;9.162;2023-04-15T03:52:01;4.80;99.90
11812;DHT22;5963;50.184;9.162;2023-04-15T03:54:31;4.90;99.90
11812;DHT22;5963;50.184;9.162;2023-04-15T03:57:01;4.90;99.90
11812;DHT22;5963;50.184;9.162;2023-04-15T03:59:32;4.90;99.90
11812;DHT22;5963;50.184;9.162;2023-04-15T04:02:02;4.90;99.90
11812;DHT22;5963;50.184;9.162;2023-04-15T04:04:31;4.90;99.90
11812;DHT22;5963;50.184;9.162;2023-04-15T04:07:01;5.00;99.90
11812;DHT22;5963;50.184;9.162;2023-04-15T04:09:31;5.00;99.90
11812;DHT22;5963;50.184;9.162;2023-04-15T04:12:01;4.90;99.90
11812;DHT22;5963;50.184;9.162;2023-04-15T04:14:33;4.80;99.90
11812;DHT22;5963;50.184;9.162;2023-04-15T04:17:02;4.90;99.90
11812;DHT22;5963;50.184;9.162;2023-04-15T04:19:32;4.80;99.90
11812;DHT22;5963;50.184;9.162;2023-04-15T04:22:02;4.90;99.90
11812;DHT22;5963;50.184;9.162;2023-04-15T04:24:32;4.90;99.90
11812;DHT22;5963;50.184;9.162;2023-04-15T04:27:01;4.80;99.90
11812;DHT22;5963;50.184;9.162;2023-04-15T04:29:33;4.90;99.90
11812;DHT22;5963;50.184;9.162;2023-04-15T04:32:02;4.90;99.90
11812;DHT22;5963;50.184;9.162;2023-04-15T04:34:32;4.80;99.90
11812;DHT22;5963;50.184;9.162;2023-04-15T04:37:02;4.70;99.90
11812;DHT22;5963;50.184;9.162;2023-04-15T04:39:32;4.80;99.90
11812;DHT22;5963;50.184;9.162;2023-04-15T04:42:02;4.80;99.90
11812;DHT22;5963;50.184;9.162;2023-04-15T04:44:33;4.70;99.90
11812;DHT22;5963;50.184;9.162;2023-04-15T04:47:01;4.70;99.90
11812;DHT22;5963;50.184;9.162;2023-04-15T04:49:30;4.60;99.90
11812;DHT22;5963;50.184;9.162;2023-04-15T04:52:00;4.70;99.90
11812;DHT22;5963;50.184;9.162;2023-04-15T04:54:30;4.60;99.90
11812;DHT22;5963;50.184;9.162;2023-04-15T04:57:00;4.70;99.90
11812;DHT22;5963;50.184;9.162;2023-04-15T04:59:29;4.60;99.90
11812;DHT22;5963;50.184;9.162;2023-04-15T05:02:00;4.60;99.90
11812;DHT22;5963;50.184;9.162;2023-04-15T05:04:30;4.60;99.90
11812;DHT22;5963;50.184;9.162;2023-04-15T05:07:00;4.70;99.90
11812;DHT22;5963;50.184;9.162;2023-04-15T05:09:30;4.70;99.90
11812;DHT22;5963;50.184;9.162;2023-04-15T05:12:03;4.60;99.90
11812;DHT22;5963;50.184;9.162;2023-04-15T05:14:33;4.70;99.90
11812;DHT22;5963;50.184;9.162;2023-04-15T05:17:04;4.70;99.90
11812;DHT22;5963;50.184;9.162;2023-04-15T05:19:34;4.60;99.90
11812;DHT22;5963;50.184;9.162;2023-04-15T05:22:03;4.70;99.90
11812;DHT22;5963;50.184;9.162;2023-04-15T05:24:33;4.80;99.90
11812;DHT22;5963;50.184;9.162;2023-04-15T05:27:04;4.80;99.90
11812;DHT22;5963;50.184;9.162;2023-04-15T05:29:33;5.00;99.90
11812;DHT22;5963;50.184;9.162;2023-04-15T05:32:05;5.10;99.90
11812;DHT22;5963;50.184;9.162;2023-04-15T05:34:34;5.30;99.90
11812;DHT22;5963;50.184;9.162;2023-04-15T05:37:04;5.40;99.90
11812;DHT22;5963;50.184;9.162;2023-04-15T05:39:34;5.50;99.90
11812;DHT22;5963;50.184;9.162;2023-04-15T05:42:04;5.50;99.90
11812;DHT22;5963;50.184;9.162;2023-04-15T05:44:34;5.40;99.90
11812;DHT22;5963;50.184;9.162;2023-04-15T05:47:05;5.40;99.90
11812;DHT22;5963;50.184;9.162;2023-04-15T05:49:35;5.40;99.90
11812;DHT22;5963;50.184;9.162;2023-04-15T05:52:05;5.30;99.90
11812;DHT22;5963;50.184;9.162;2023-04-15T05:54:35;5.30;99.90
11812;DHT22;5963;50.184;9.162;2023-04-15T05:57:04;5.30;99.90
11812;DHT22;5963;50.184;9.162;2023-04-15T05:59:35;5.40;99.90
11812;DHT22;5963;50.184;9.162;2023-04-15T06:02:07;5.40;99.90
11812;DHT22;5963;50.184;9.162;2023-04-15T06:04:38;5.30;99.90
11812;DHT22;5963;50.184;9.162;2023-04-15T06:07:07;5.40;99.90
11812;DHT22;5963;50.184;9.162;2023-04-15T06:09:37;5.50;99.90
11812;DHT22;5963;50.184;9.162;2023-04-15T06:12:07;5.50;99.90
11812;DHT22;5963;50.184;9.162;2023-04-15T06:14:40;5.50;99.90
11812;DHT22;5963;50.184;9.162;2023-04-15T06:17:11;5.60;99.90
11812;DHT22;5963;50.184;9.162;2023-04-15T06:19:42;5.70;99.90
11812;DHT22;5963;50.184;9.162;2023-04-15T06:22:11;5.70;99.90
11812;DHT22;5963;50.184;9.162;2023-04-15T06:24:41;5.80;99.90
11812;DHT22;5963;50.184;9.162;2023-04-15T06:27:11;5.90;99.90
11812;DHT22;5963;50.184;9.162;2023-04-15T06:29:41;6.10;99.90
11812;DHT22;5963;50.184;9.162;2023-04-15T06:32:12;6.10;99.90
11812;DHT22;5963;50.184;9.162;2023-04-15T06:34:42;6.20;99.90
11812;DHT22;5963;50.184;9.162;2023-04-15T06:37:11;6.20;99.90
11812;DHT22;5963;50.184;9.162;2023-04-15T06:39:43;6.30;99.90
11812;DHT22;5963;50.184;9.162;2023-04-15T06:42:14;6.40;99.90
11812;DHT22;5963;50.184;9.162;2023-04-15T06:44:44;6.60;99.90
11812;DHT22;5963;50.184;9.162;2023-04-15T06:47:15;6.90;99.90
11812;DHT22;5963;50.184;9.162;2023-04-15T06:49:45;7.00;99.90
11812;DHT22;5963;50.184;9.162;2023-04-15T06:52:15;7.00;99.90
11812;DHT22;5963;50.184;9.162;2023-04-15T06:54:45;7.10;99.90
11812;DHT22;5963;50.184;9.162;2023-04-15T06:57:15;7.20;99.90
11812;DHT22;5963;50.184;9.162;2023-04-15T06:59:44;7.20;99.90
11812;DHT22;5963;50.184;9.162;2023-04-15T07:02:16;7.30;99.90
11812;DHT22;5963;50.184;9.162;2023-04-15T07:04:46;7.40;99.90
11812;DHT22;5963;50.184;9.162;2023-04-15T07:07:16;7.40;99.90
11812;DHT22;5963;50.184;9.162;2023-04-15T07:09:46;7.50;99.90
11812;DHT22;5963;50.184;9.162;2023-04-15T07:12:15;7.50;99.90
11812;DHT22;5963;50.184;9.162;2023-04-15T07:14:45;7.50;99.90
11812;DHT22;5963;50.184;9.162;2023-04-15T07:17:16;7.60;99.90
11812;DHT22;5963;50.184;9.162;2023-04-15T07:19:46;7.80;99.90
11812;DHT22;5963;50.184;9.162;2023-04-15T07:22:16;7.90;99.90
11812;DHT22;5963;50.184;9.162;2023-04-15T07:24:46;8.00;99.90
11812;DHT22;5963;50.184;9.162;2023-04-15T07:27:14;8.00;99.90
11812;DHT22;5963;50.184;9.162;2023-04-15T07:29:45;8.00;99.90
11812;DHT22;5963;50.184;9.162;2023-04-15T07:32:14;8.20;99.90
11812;DHT22;5963;50.184;9.162;2023-04-15T07:34:44;8.30;99.90
11812;DHT22;5963;50.184;9.162;2023-04-15T07:37:14;8.40;99.90
11812;DHT22;5963;50.184;9.162;2023-04-15T07:39:44;8.60;99.90
11812;DHT22;5963;50.184;9.162;2023-04-15T07:42:14;8.70;99.90
11812;DHT22;5963;50.184;9.162;2023-04-15T07:44:44;8.90;99.90
11812;DHT22;5963;50.184;9.162;2023-04-15T07:47:14;8.90;99.90
11812;DHT22;5963;50.184;9.162;2023-04-15T07:49:45;9.10;99.90
11812;DHT22;5963;50.184;9.162;2023-04-15T07:52:15;9.20;99.90
11812;DHT22;5963;50.184;9.162;2023-04-15T07:54:44;9.30;99.90
11812;DHT22;5963;50.184;9.162;2023-04-15T07:57:14;9.20;99.90
11812;DHT22;5963;50.184;9.162;2023-04-15T07:59:44;9.20;99.90
11812;DHT22;5963;50.184;9.162;2023-04-15T08:02:14;9.20;99.90
11812;DHT22;5963;50.184;9.162;2023-04-15T08:04:45;9.10;99.90
11812;DHT22;5963;50.184;9.162;2023-04-15T08:07:16;9.10;99.90
11812;DHT22;5963;50.184;9.162;2023-04-15T08:09:46;9.10;99.90
11812;DHT22;5963;50.184;9.162;2023-04-15T08:12:15;9.10;99.90
11812;DHT22;5963;50.184;9.162;2023-04-15T08:14:45;9.10;99.90
11812;DHT22;5963;50.184;9.162;2023-04-15T08:17:15;9.10;99.90
11812;DHT22;5963;50.184;9.162;2023-04-15T08:19:46;9.20;99.90
11812;DHT22;5963;50.184;9.162;2023-04-15T08:22:16;9.30;99.90
11812;DHT22;5963;50.184;9.162;2023-04-15T08:24:48;9.40;99.90
11812;DHT22;5963;50.184;9.162;2023-04-15T08:27:18;9.50;99.90
11812;DHT22;5963;50.184;9.162;2023-04-15T08:29:49;9.70;99.90
11812;DHT22;5963;50.184;9.162;2023-04-15T08:32:18;9.90;99.90
11812;DHT22;5963;50.184;9.162;2023-04-15T08:34:49;9.90;99.90
11812;DHT22;5963;50.184;9.162;2023-04-15T08:37:19;10.00;99.90
11812;DHT22;5963;50.184;9.162;2023-04-15T08:39:50;10.10;99.90
11812;DHT22;5963;50.184;9.162;2023-04-15T08:42:26;10.20;99.90
11812;DHT22;5963;50.184;9.162;2023-04-15T08:45:00;10.30;99.90
11812;DHT22;5963;50.184;9.162;2023-04-15T08:47:32;10.30;99.90
11812;DHT22;5963;50.184;9.162;2023-04-15T08:50:04;10.50;99.90
11812;DHT22;5963;50.184;9.162;2023-04-15T08:52:38;10.50;99.90
11812;DHT22;5963;50.184;9.162;2023-04-15T08:55:09;10.40;99.90
11812;DHT22;5963;50.184;9.162;2023-04-15T08:57:40;10.40;99.90
11812;DHT22;5963;50.184;9.162;2023-04-15T09:00:11;10.40;99.90
11812;DHT22;5963;50.184;9.162;2023-04-15T09:02:42;10.40;99.90
11812;DHT22;5963;50.184;9.162;2023-04-15T09:05:13;10.50;99.90
11812;DHT22;5963;50.184;9.162;2023-04-15T09:07:44;10.70;99.90
11812;DHT22;5963;50.184;9.162;2023-04-15T09:10:13;10.70;99.90
11812;DHT22;5963;50.184;9.162;2023-04-15T09:12:43;10.70;99.90
11812;DHT22;5963;50.184;9.162;2023-04-15T09:15:13;10.70;99.90
11812;DHT22;5963;50.184;9.162;2023-04-15T09:17:44;10.70;99.90
11812;DHT22;5963;50.184;9.162;2023-04-15T09:20:17;10.70;99.90
11812;DHT22;5963;50.184;9.162;2023-04-15T09:22:48;10.70;99.90
11812;DHT22;5963;50.184;9.162;2023-04-15T09:25:29;10.80;99.90
11812;DHT22;5963;50.184;9.162;2023-04-15T09:28:02;10.80;99.90
11812;DHT22;5963;50.184;9.162;2023-04-15T09:30:32;10.80;99.90
11812;DHT22;5963;50.184;9.162;2023-04-15T09:33:03;10.90;99.90
11812;DHT22;5963;50.184;9.162;2023-04-15T09:35:37;10.80;99.90
11812;DHT22;5963;50.184;9.162;2023-04-15T09:38:08;10.90;99.90
11812;DHT22;5963;50.184;9.162;2023-04-15T09:40:39;10.90;99.90
11812;DHT22;5963;50.184;9.162;2023-04-15T09:43:10;11.00;99.90
11812;DHT22;5963;50.184;9.162;2023-04-15T09:45:48;11.00;99.90
11812;DHT22;5963;50.184;9.162;2023-04-15T09:48:20;11.00;99.90
11812;DHT22;5963;50.184;9.162;2023-04-15T09:50:52;11.00;99.90
11812;DHT22;5963;50.184;9.162;2023-04-15T09:53:23;11.00;99.90
11812;DHT22;5963;50.184;9.162;2023-04-15T09:55:54;11.00;99.90
11812;DHT22;5963;50.184;9.162;2023-04-15T09:58:25;11.20;99.90
11812;DHT22;5963;50.184;9.162;2023-04-15T10:00:57;11.30;99.90
11812;DHT22;5963;50.184;9.162;2023-04-15T10:03:28;11.40;99.90
11812;DHT22;5963;50.184;9.162;2023-04-15T10:06:00;11.30;99.90
11812;DHT22;5963;50.184;9.162;2023-04-15T10:08:32;11.30;99.90
11812;DHT22;5963;50.184;9.162;2023-04-15T10:11:03;11.30;99.90
11812;DHT22;5963;50.184;9.162;2023-04-15T10:13:33;11.30;99.90
11812;DHT22;5963;50.184;9.162;2023-04-15T10:16:09;11.00;99.90
11812;DHT22;5963;50.184;9.162;2023-04-15T10:18:42;10.90;99.90
11812;DHT22;5963;50.184;9.162;2023-04-15T10:21:13;10.80;99.90
11812;DHT22;5963;50.184;9.162;2023-04-15T10:23:46;10.60;99.90
11812;DHT22;5963;50.184;9.162;2023-04-15T10:26:16;10.60;99.90
11812;DHT22;5963;50.184;9.162;2023-04-15T10:28:46;10.50;99.90
11812;DHT22;5963;50.184;9.162;2023-04-15T10:31:16;10.50;99.90
11812;DHT22;5963;50.184;9.162;2023-04-15T10:33:48;10.50;99.90
11812;DHT22;5963;50.184;9.162;2023-04-15T10:36:19;10.60;99.90
11812;DHT22;5963;50.184;9.162;2023-04-15T10:38:49;10.50;99.90
11812;DHT22;5963;50.184;9.162;2023-04-15T10:41:20;10.40;99.90
11812;DHT22;5963;50.184;9.162;2023-04-15T10:43:50;10.30;99.90
11812;DHT22;5963;50.184;9.162;2023-04-15T10:46:22;10.10;99.90
11812;DHT22;5963;50.184;9.162;2023-04-15T10:48:54;10.10;99.90
11812;DHT22;5963;50.184;9.162;2023-04-15T10:51:32;9.90;99.90
11812;DHT22;5963;50.184;9.162;2023-04-15T10:54:03;9.70;99.90
11812;DHT22;5963;50.184;9.162;2023-04-15T10:56:37;9.60;99.90
11812;DHT22;5963;50.184;9.162;2023-04-15T10:59:06;9.50;99.90
11812;DHT22;5963;50.184;9.162;2023-04-15T11:01:52;9.40;99.90
11812;DHT22;5963;50.184;9.162;2023-04-15T11:04:53;9.40;99.90
11812;DHT22;5963;50.184;9.162;2023-04-15T11:07:55;9.40;99.90
11812;DHT22;5963;50.184;9.162;2023-04-15T11:10:52;9.40;99.90
11812;DHT22;5963;50.184;9.162;2023-04-15T11:13:26;9.40;99.90
11812;DHT22;5963;50.184;9.162;2023-04-15T11:15:58;9.30;99.90
11812;DHT22;5963;50.184;9.162;2023-04-15T11:18:31;9.30;99.90
11812;DHT22;5963;50.184;9.162;2023-04-15T11:21:06;9.30;99.90
11812;DHT22;5963;50.184;9.162;2023-04-15T11:23:40;9.30;99.90
11812;DHT22;5963;50.184;9.162;2023-04-15T11:26:12;9.40;99.90
11812;DHT22;5963;50.184;9.162;2023-04-15T11:28:43;9.30;99.90
11812;DHT22;5963;50.184;9.162;2023-04-15T11:31:14;9.40;99.90
11812;DHT22;5963;50.184;9.162;2023-04-15T11:33:55;9.40;99.90
11812;DHT22;5963;50.184;9.162;2023-04-15T11:36:26;9.40;99.90
11812;DHT22;5963;50.184;9.162;2023-04-15T11:38:59;9.40;99.90
11812;DHT22;5963;50.184;9.162;2023-04-15T11:41:28;9.40;99.90
11812;DHT22;5963;50.184;9.162;2023-04-15T11:43:58;9.40;99.90
11812;DHT22;5963;50.184;9.162;2023-04-15T11:46:32;9.30;99.90
11812;DHT22;5963;50.184;9.162;2023-04-15T11:49:02;9.10;99.90
11812;DHT22;5963;50.184;9.162;2023-04-15T11:51:33;9.10;99.90
11812;DHT22;5963;50.184;9.162;2023-04-15T11:54:04;9.10;99.90
11812;DHT22;5963;50.184;9.162;2023-04-15T11:56:34;9.00;99.90
11812;DHT22;5963;50.184;9.162;2023-04-15T11:59:04;9.00;99.90
11812;DHT22;5963;50.184;9.162;2023-04-15T12:01:34;9.00;99.90
11812;DHT22;5963;50.184;9.162;2023-04-15T12:04:12;9.10;99.90
11812;DHT22;5963;50.184;9.162;2023-04-15T12:06:43;9.00;99.90
11812;DHT22;5963;50.184;9.162;2023-04-15T12:09:14;9.00;99.90
11812;DHT22;5963;50.184;9.162;2023-04-15T12:11:46;9.00;99.90
11812;DHT22;5963;50.184;9.162;2023-04-15T12:14:25;9.00;99.90
11812;DHT22;5963;50.184;9.162;2023-04-15T12:16:56;9.00;99.90
11812;DHT22;5963;50.184;9.162;2023-04-15T12:19:29;9.00;99.90
11812;DHT22;5963;50.184;9.162;2023-04-15T12:22:01;9.10;99.90
11812;DHT22;5963;50.184;9.162;2023-04-15T12:24:34;9.20;99.90
11812;DHT22;5963;50.184;9.162;2023-04-15T12:27:05;9.20;99.90
11812;DHT22;5963;50.184;9.162;2023-04-15T12:29:37;9.20;99.90
11812;DHT22;5963;50.184;9.162;2023-04-15T12:32:08;9.20;99.90
11812;DHT22;5963;50.184;9.162;2023-04-15T12:34:39;9.20;99.90
11812;DHT22;5963;50.184;9.162;2023-04-15T12:37:11;9.20;99.90
11812;DHT22;5963;50.184;9.162;2023-04-15T12:39:47;9.20;99.90
11812;DHT22;5963;50.184;9.162;2023-04-15T12:42:19;9.20;99.90
11812;DHT22;5963;50.184;9.162;2023-04-15T12:44:49;9.20;99.90
11812;DHT22;5963;50.184;9.162;2023-04-15T12:47:19;9.30;99.90
11812;DHT22;5963;50.184;9.162;2023-04-15T12:49:49;9.20;99.90
11812;DHT22;5963;50.184;9.162;2023-04-15T12:52:19;9.20;99.90
11812;DHT22;5963;50.184;9.162;2023-04-15T12:54:50;9.10;99.90
11812;DHT22;5963;50.184;9.162;2023-04-15T12:57:21;9.10;99.90
11812;DHT22;5963;50.184;9.162;2023-04-15T12:59:51;9.00;99.90
11812;DHT22;5963;50.184;9.162;2023-04-15T13:02:21;9.00;99.90
11812;DHT22;5963;50.184;9.162;2023-04-15T13:04:53;9.00;99.90
11812;DHT22;5963;50.184;9.162;2023-04-15T13:07:23;9.00;99.90
11812;DHT22;5963;50.184;9.162;2023-04-15T13:09:54;9.00;99.90
11812;DHT22;5963;50.184;9.162;2023-04-15T13:12:25;8.90;99.90
11812;DHT22;5963;50.184;9.162;2023-04-15T13:14:55;9.00;99.90
11812;DHT22;5963;50.184;9.162;2023-04-15T13:17:25;8.90;99.90
11812;DHT22;5963;50.184;9.162;2023-04-15T13:19:54;8.90;99.90
11812;DHT22;5963;50.184;9.162;2023-04-15T13:22:24;8.90;99.90
11812;DHT22;5963;50.184;9.162;2023-04-15T13:24:55;8.80;99.90
11812;DHT22;5963;50.184;9.162;2023-04-15T13:27:25;8.80;99.90
11812;DHT22;5963;50.184;9.162;2023-04-15T13:29:55;8.80;99.90
11812;DHT22;5963;50.184;9.162;2023-04-15T13:32:25;8.90;99.90
11812;DHT22;5963;50.184;9.162;2023-04-15T13:34:55;8.80;99.90
11812;DHT22;5963;50.184;9.162;2023-04-15T13:37:27;8.80;99.90
11812;DHT22;5963;50.184;9.162;2023-04-15T13:39:58;8.80;99.90
11812;DHT22;5963;50.184;9.162;2023-04-15T13:42:28;8.70;99.90
11812;DHT22;5963;50.184;9.162;2023-04-15T13:44:58;8.70;99.90
11812;DHT22;5963;50.184;9.162;2023-04-15T13:47:27;8.60;99.90
11812;DHT22;5963;50.184;9.162;2023-04-15T13:49:58;8.60;99.90
11812;DHT22;5963;50.184;9.162;2023-04-15T13:52:28;8.70;99.90
11812;DHT22;5963;50.184;9.162;2023-04-15T13:54:59;8.70;99.90
11812;DHT22;5963;50.184;9.162;2023-04-15T13:57:47;8.70;99.90
11812;DHT22;5963;50.184;9.162;2023-04-15T14:00:17;8.70;99.90
11812;DHT22;5963;50.184;9.162;2023-04-15T14:02:47;8.70;99.90
11812;DHT22;5963;50.184;9.162;2023-04-15T14:05:17;8.80;99.90
11812;DHT22;5963;50.184;9.162;2023-04-15T14:07:47;8.80;99.90
11812;DHT22;5963;50.184;9.162;2023-04-15T14:10:18;8.80;99.90
11812;DHT22;5963;50.184;9.162;2023-04-15T14:12:48;8.70;99.90
11812;DHT22;5963;50.184;9.162;2023-04-15T14:15:18;8.80;99.90
11812;DHT22;5963;50.184;9.162;2023-04-15T14:17:47;8.80;99.90
11812;DHT22;5963;50.184;9.162;2023-04-15T14:20:18;8.80;99.90
11812;DHT22;5963;50.184;9.162;2023-04-15T14:22:48;8.80;99.90
11812;DHT22;5963;50.184;9.162;2023-04-15T14:25:19;8.90;99.90
11812;DHT22;5963;50.184;9.162;2023-04-15T14:28:00;8.80;99.90
11812;DHT22;5963;50.184;9.162;2023-04-15T14:30:30;8.90;99.90
11812;DHT22;5963;50.184;9.162;2023-04-15T14:33:00;8.90;99.90
11812;DHT22;5963;50.184;9.162;2023-04-15T14:35:30;8.90;99.90
11812;DHT22;5963;50.184;9.162;2023-04-15T14:37:59;8.90;99.90
11812;DHT22;5963;50.184;9.162;2023-04-15T14:40:31;8.90;99.90
11812;DHT22;5963;50.184;9.162;2023-04-15T14:43:03;9.00;99.90
11812;DHT22;5963;50.184;9.162;2023-04-15T14:45:33;8.90;99.90
11812;DHT22;5963;50.184;9.162;2023-04-15T14:48:04;8.80;99.90
11812;DHT22;5963;50.184;9.162;2023-04-15T14:50:37;8.90;99.90
11812;DHT22;5963;50.184;9.162;2023-04-15T14:53:06;8.90;99.90
11812;DHT22;5963;50.184;9.162;2023-04-15T14:55:38;8.80;99.90
11812;DHT22;5963;50.184;9.162;2023-04-15T14:58:07;8.80;99.90
11812;DHT22;5963;50.184;9.162;2023-04-15T15:00:37;8.70;99.90
11812;DHT22;5963;50.184;9.162;2023-04-15T15:03:10;8.70;99.90
11812;DHT22;5963;50.184;9.162;2023-04-15T15:05:41;8.70;99.90
11812;DHT22;5963;50.184;9.162;2023-04-15T15:08:12;8.60;99.90
11812;DHT22;5963;50.184;9.162;2023-04-15T15:10:43;8.60;99.90
11812;DHT22;5963;50.184;9.162;2023-04-15T15:13:17;8.60;99.90
11812;DHT22;5963;50.184;9.162;2023-04-15T15:15:47;8.60;99.90
11812;DHT22;5963;50.184;9.162;2023-04-15T15:18:17;8.60;99.90
11812;DHT22;5963;50.184;9.162;2023-04-15T15:20:47;8.70;99.90
11812;DHT22;5963;50.184;9.162;2023-04-15T15:23:17;8.70;99.90
11812;DHT22;5963;50.184;9.162;2023-04-15T15:25:48;8.70;99.90
11812;DHT22;5963;50.184;9.162;2023-04-15T15:28:18;8.70;99.90
11812;DHT22;5963;50.184;9.162;2023-04-15T15:30:49;8.70;99.90
11812;DHT22;5963;50.184;9.162;2023-04-15T15:33:18;8.70;99.90
11812;DHT22;5963;50.184;9.162;2023-04-15T15:35:49;8.80;99.90
11812;DHT22;5963;50.184;9.162;2023-04-15T15:38:19;8.80;99.90
11812;DHT22;5963;50.184;9.162;2023-04-15T15:40:50;8.70;99.90
11812;DHT22;5963;50.184;9.162;2023-04-15T15:43:20;8.70;99.90
11812;DHT22;5963;50.184;9.162;2023-04-15T15:45:50;8.70;99.90
11812;DHT22;5963;50.184;9.162;2023-04-15T15:48:24;8.70;99.90
11812;DHT22;5963;50.184;9.162;2023-04-15T15:50:53;8.70;99.90
11812;DHT22;5963;50.184;9.162;2023-04-15T15:53:23;8.70;99.90
11812;DHT22;5963;50.184;9.162;2023-04-15T15:55:54;8.70;99.90
11812;DHT22;5963;50.184;9.162;2023-04-15T15:58:24;8.70;99.90
11812;DHT22;5963;50.184;9.162;2023-04-15T16:00:54;8.60;99.90
11812;DHT22;5963;50.184;9.162;2023-04-15T16:03:24;8.70;99.90
11812;DHT22;5963;50.184;9.162;2023-04-15T16:05:54;8.70;99.90
11812;DHT22;5963;50.184;9.162;2023-04-15T16:08:24;8.60;99.90
11812;DHT22;5963;50.184;9.162;2023-04-15T16:10:56;8.60;99.90
11812;DHT22;5963;50.184;9.162;2023-04-15T16:13:26;8.50;99.90
11812;DHT22;5963;50.184;9.162;2023-04-15T16:15:56;8.50;99.90
11812;DHT22;5963;50.184;9.162;2023-04-15T16:18:26;8.50;99.90
11812;DHT22;5963;50.184;9.162;2023-04-15T16:20:55;8.50;99.90
11812;DHT22;5963;50.184;9.162;2023-04-15T16:23:25;8.50;99.90